createdAt,value
2023-04-29T00:00:02.041Z,99.90
2023-04-29T00:02:33.411Z,99.90
2023-04-29T00:05:02.482Z,99.90
2023-04-29T00:07:31.718Z,99.90
2023-04-29T00:10:00.869Z,99.90
2023-04-29T00:12:33.696Z,99.90
2023-04-29T00:15:03.128Z,99.90
2023-04-29T00:17:33.324Z,99.90
2023-04-29T00:20:04.412Z,99.90
2023-04-29T00:22:31.466Z,99.90
2023-04-29T00:24:58.912Z,99.90
2023-04-29T00:27:27.683Z,99.90
2023-04-29T00:29:55.332Z,99.90
2023-04-29T00:32:23.303Z,99.90
2023-04-29T00:34:51.206Z,99.90
2023-04-29T00:37:18.421Z,99.90
2023-04-29T00:39:45.352Z,99.90
2023-04-29T00:42:12.468Z,99.90
2023-04-29T00:44:40.203Z,99.90
2023-04-29T00:47:12.114Z,99.90
2023-04-29T00:49:40.253Z,99.90
2023-04-29T00:52:08.269Z,99.90
2023-04-29T00:54:37.380Z,99.90
2023-04-29T00:57:06.732Z,99.90
2023-04-29T00:59:38.066Z,99.90
2023-04-29T01:02:05.698Z,99.90
2023-04-29T01:04:32.904Z,99.90
2023-04-29T01:07:06.414Z,99.90
2023-04-29T01:09:55.677Z,99.90
2023-04-29T01:12:55.164Z,99.90
2023-04-29T01:15:26.970Z,99.90
2023-04-29T01:18:01.000Z,99.90
2023-04-29T01:20:29.108Z,99.90
2023-04-29T01:22:56.014Z,99.90
2023-04-29T01:25:23.856Z,99.90
2023-04-29T01:28:25.218Z,99.90
2023-04-29T01:31:10.399Z,99.90
2023-04-29T01:34:13.161Z,99.90
2023-04-29T01:36:59.838Z,99.90
2023-04-29T01:39:39.218Z,99.90
2023-04-29T01:42:38.701Z,99.90
2023-04-29T01:45:14.596Z,99.90
2023-04-29T01:47:44.862Z,99.90
2023-04-29T01:50:15.109Z,99.90
2023-04-29T01:52:44.100Z,99.90
2023-04-29T01:55:13.844Z,99.90
2023-04-29T01:57:44.763Z,99.90
2023-04-29T02:00:12.798Z,99.90
2023-04-29T02:02:46.183Z,99.90
2023-04-29T02:05:16.872Z,99.90
2023-04-29T02:07:51.661Z,99.90
2023-04-29T02:10:25.190Z,99.90
2023-04-29T02:12:57.514Z,99.90
2023-04-29T02:15:33.129Z,99.90
2023-04-29T02:18:03.886Z,99.90
2023-04-29T02:20:32.135Z,99.90
2023-04-29T02:22:59.619Z,99.90
2023-04-29T02:25:28.160Z,99.90
2023-04-29T02:27:58.735Z,99.90
2023-04-29T02:30:28.448Z,99.90
2023-04-29T02:32:56.623Z,99.90
2023-04-29T02:35:24.658Z,99.90
2023-04-29T02:37:54.938Z,99.90
2023-04-29T02:40:26.879Z,99.90
2023-04-29T02:42:55.213Z,99.90
2023-04-29T02:45:23.242Z,99.90
2023-04-29T02:47:51.489Z,99.90
2023-04-29T02:50:20.500Z,99.90
2023-04-29T02:52:53.438Z,99.90
2023-04-29T02:55:23.241Z,99.90
2023-04-29T02:57:53.928Z,99.90
2023-04-29T03:00:23.142Z,99.90
2023-04-29T03:02:53.786Z,99.90
2023-04-29T03:05:21.467Z,99.90
2023-04-29T03:07:48.470Z,99.90
2023-04-29T03:10:16.241Z,99.90
2023-04-29T03:12:44.365Z,99.90
2023-04-29T03:15:11.683Z,99.90
2023-04-29T03:17:39.283Z,99.90
2023-04-29T03:20:08.436Z,99.90
2023-04-29T03:22:36.537Z,99.90
2023-04-29T03:25:04.375Z,99.90
2023-04-29T03:27:33.398Z,99.90
2023-04-29T03:30:02.943Z,99.90
2023-04-29T03:32:32.476Z,99.90
2023-04-29T03:35:04.447Z,99.90
2023-04-29T03:37:32.852Z,99.90
2023-04-29T03:40:00.964Z,99.90
2023-04-29T03:42:30.039Z,99.90
2023-04-29T03:44:58.567Z,99.90
2023-04-29T03:47:27.312Z,99.90
2023-04-29T03:49:55.460Z,99.90
2023-04-29T03:52:24.528Z,99.90
2023-04-29T03:54:52.980Z,99.90
2023-04-29T03:57:21.441Z,99.90
2023-04-29T03:59:51.351Z,99.90
2023-04-29T04:02:20.939Z,99.90
2023-04-29T04:04:49.858Z,99.90
2023-04-29T04:07:19.313Z,99.90
2023-04-29T04:09:47.044Z,99.90
2023-04-29T04:12:14.976Z,99.90
2023-04-29T04:14:42.345Z,99.90
2023-04-29T04:17:09.343Z,99.90
2023-04-29T04:19:37.926Z,99.90
2023-04-29T04:22:05.182Z,99.90
2023-04-29T04:24:32.273Z,99.90
2023-04-29T04:26:59.416Z,99.90
2023-04-29T04:29:28.020Z,99.90
2023-04-29T04:31:55.881Z,99.90
2023-04-29T04:34:23.964Z,99.90
2023-04-29T04:36:52.218Z,99.90
2023-04-29T04:39:19.722Z,99.90
2023-04-29T04:41:47.423Z,99.90
2023-04-29T04:44:14.569Z,99.90
2023-04-29T04:46:42.758Z,99.90
2023-04-29T04:49:10.225Z,99.90
2023-04-29T04:51:37.656Z,99.90
2023-04-29T04:54:04.768Z,99.90
2023-04-29T04:56:32.107Z,99.90
2023-04-29T04:58:59.074Z,99.90
2023-04-29T05:01:26.593Z,99.90
2023-04-29T05:03:53.905Z,99.90
2023-04-29T05:06:21.130Z,99.90
2023-04-29T05:08:48.686Z,99.90
2023-04-29T05:11:19.702Z,99.90
2023-04-29T05:13:47.368Z,99.90
2023-04-29T05:16:15.200Z,99.90
2023-04-29T05:18:46.828Z,99.90
2023-04-29T05:21:16.473Z,99.90
2023-04-29T05:23:45.206Z,99.90
2023-04-29T05:26:12.133Z,99.90
2023-04-29T05:28:39.414Z,99.90
2023-04-29T05:31:06.450Z,99.90
2023-04-29T05:33:33.879Z,99.90
2023-04-29T05:36:01.509Z,99.90
2023-04-29T05:38:29.089Z,99.90
2023-04-29T05:40:56.860Z,99.90
2023-04-29T05:43:24.581Z,99.90
2023-04-29T05:45:51.563Z,99.90
2023-04-29T05:48:18.541Z,99.90
2023-04-29T05:50:45.760Z,99.90
2023-04-29T05:53:12.861Z,99.90
2023-04-29T05:55:40.742Z,99.90
2023-04-29T05:58:07.992Z,99.90
2023-04-29T06:00:34.951Z,99.90
2023-04-29T06:03:02.415Z,99.90
2023-04-29T06:05:29.696Z,99.90
2023-04-29T06:07:57.067Z,99.90
2023-04-29T06:10:23.920Z,99.90
2023-04-29T06:12:51.890Z,99.90
2023-04-29T06:15:19.129Z,99.90
2023-04-29T06:17:47.332Z,99.90
2023-04-29T06:20:14.458Z,99.90
2023-04-29T06:22:41.441Z,99.90
2023-04-29T06:25:08.780Z,99.90
2023-04-29T06:27:37.030Z,99.90
2023-04-29T06:30:04.173Z,99.90
2023-04-29T06:32:31.266Z,99.90
2023-04-29T06:34:58.207Z,99.90
2023-04-29T06:37:25.095Z,99.90
2023-04-29T06:39:52.065Z,99.90
2023-04-29T06:42:19.618Z,99.90
2023-04-29T06:44:46.545Z,99.90
2023-04-29T06:47:13.660Z,99.90
2023-04-29T06:49:40.838Z,99.90
2023-04-29T06:52:08.225Z,99.90
2023-04-29T06:54:35.933Z,99.90
2023-04-29T06:57:02.838Z,99.90
2023-04-29T06:59:30.164Z,99.90
2023-04-29T07:01:57.111Z,99.90
2023-04-29T07:04:24.082Z,99.90
2023-04-29T07:06:51.540Z,99.90
2023-04-29T07:09:18.414Z,99.90
2023-04-29T07:11:45.569Z,99.90
2023-04-29T07:14:12.440Z,99.90
2023-04-29T07:16:39.790Z,99.90
2023-04-29T07:19:06.813Z,99.90
2023-04-29T07:21:33.729Z,99.90
2023-04-29T07:24:04.985Z,99.90
2023-04-29T07:26:32.042Z,99.90
2023-04-29T07:28:58.983Z,99.90
2023-04-29T07:31:26.073Z,99.90
2023-04-29T07:33:53.414Z,99.90
2023-04-29T07:36:20.396Z,99.90
2023-04-29T07:38:47.324Z,99.90
2023-04-29T07:41:14.237Z,99.90
2023-04-29T07:43:42.437Z,99.90
2023-04-29T07:46:10.057Z,99.90
2023-04-29T07:48:39.397Z,99.90
2023-04-29T07:51:14.569Z,99.90
2023-04-29T07:53:42.077Z,99.90
2023-04-29T07:56:09.630Z,99.90
2023-04-29T07:58:36.971Z,99.90
2023-04-29T08:01:12.114Z,99.90
2023-04-29T08:03:41.532Z,99.90
2023-04-29T08:06:09.254Z,99.90
2023-04-29T08:08:36.909Z,99.90
2023-04-29T08:11:04.090Z,99.90
2023-04-29T08:13:33.541Z,99.90
2023-04-29T08:16:00.530Z,99.90
2023-04-29T08:18:28.064Z,99.90
2023-04-29T08:20:54.943Z,99.90
2023-04-29T08:23:21.848Z,99.90
2023-04-29T08:25:51.895Z,99.90
2023-04-29T08:28:19.720Z,99.90
2023-04-29T08:30:46.775Z,99.90
2023-04-29T08:33:14.583Z,99.90
2023-04-29T08:35:42.164Z,99.90
2023-04-29T08:38:10.337Z,99.90
2023-04-29T08:40:42.636Z,99.90
2023-04-29T08:43:15.422Z,99.90
2023-04-29T08:45:43.893Z,99.90
2023-04-29T08:48:11.803Z,99.90
2023-04-29T08:50:41.490Z,99.90
2023-04-29T08:53:09.932Z,99.90
2023-04-29T08:55:41.546Z,99.90
2023-04-29T08:58:10.398Z,99.90
2023-04-29T09:00:37.981Z,99.90
2023-04-29T09:03:11.357Z,99.90
2023-04-29T09:05:41.972Z,99.90
2023-04-29T09:08:10.052Z,99.90
2023-04-29T09:10:38.689Z,99.90
2023-04-29T09:13:06.071Z,99.90
2023-04-29T09:15:37.916Z,99.90
2023-04-29T09:18:06.052Z,99.90
2023-04-29T09:20:33.175Z,99.90
2023-04-29T09:23:03.636Z,99.90
2023-04-29T09:25:31.565Z,99.90
2023-04-29T09:27:58.666Z,99.90
2023-04-29T09:30:26.073Z,99.90
2023-04-29T09:33:09.801Z,99.90
2023-04-29T09:35:37.023Z,99.90
2023-04-29T09:38:15.044Z,99.90
2023-04-29T09:40:58.186Z,99.90
2023-04-29T09:43:26.385Z,99.90
2023-04-29T09:45:53.646Z,99.90
2023-04-29T09:48:21.080Z,99.90
2023-04-29T09:51:03.368Z,99.90
2023-04-29T09:53:31.864Z,99.90
2023-04-29T09:56:03.648Z,99.90
2023-04-29T09:58:38.339Z,99.90
2023-04-29T10:01:08.469Z,99.90
2023-04-29T10:03:38.394Z,99.90
2023-04-29T10:06:07.681Z,99.90
2023-04-29T10:08:37.745Z,99.90
2023-04-29T10:11:06.163Z,99.90
2023-04-29T10:13:38.538Z,99.90
2023-04-29T10:16:11.802Z,99.90
2023-04-29T10:18:41.934Z,99.90
2023-04-29T10:21:12.205Z,99.90
2023-04-29T10:23:39.768Z,99.90
2023-04-29T10:26:13.882Z,99.90
2023-04-29T10:28:42.567Z,99.90
2023-04-29T10:31:10.490Z,99.90
2023-04-29T10:33:40.212Z,99.90
2023-04-29T10:36:09.451Z,99.90
2023-04-29T10:38:44.220Z,99.90
2023-04-29T10:41:28.817Z,99.90
2023-04-29T10:44:03.526Z,99.90
2023-04-29T10:46:31.391Z,99.90
2023-04-29T10:49:02.731Z,99.90
2023-04-29T10:51:34.649Z,99.90
2023-04-29T10:54:03.998Z,99.90
2023-04-29T10:56:40.899Z,99.90
2023-04-29T10:59:42.934Z,99.90
2023-04-29T11:02:14.934Z,99.90
2023-04-29T11:05:12.922Z,99.90
2023-04-29T11:07:41.071Z,99.90
2023-04-29T11:10:08.651Z,99.90
2023-04-29T11:12:35.890Z,99.90
2023-04-29T11:15:06.107Z,99.90
2023-04-29T11:17:38.281Z,99.90
2023-04-29T11:20:14.739Z,99.90
2023-04-29T11:22:51.185Z,99.90
2023-04-29T11:25:18.840Z,99.90
2023-04-29T11:27:48.446Z,99.90
2023-04-29T11:30:16.919Z,99.90
2023-04-29T11:32:43.978Z,99.90
2023-04-29T11:35:19.707Z,99.90
2023-04-29T11:37:47.672Z,99.90
2023-04-29T11:40:16.955Z,99.90
2023-04-29T11:42:46.115Z,99.90
2023-04-29T11:45:13.336Z,99.90
2023-04-29T11:47:45.294Z,99.90
2023-04-29T11:50:13.046Z,99.90
2023-04-29T11:52:41.671Z,99.90
2023-04-29T11:55:12.587Z,99.90
2023-04-29T11:57:40.633Z,99.90
2023-04-29T12:00:14.373Z,99.90
2023-04-29T12:02:46.419Z,99.90
2023-04-29T12:05:15.874Z,99.90
2023-04-29T12:07:43.734Z,99.90
2023-04-29T12:10:12.014Z,99.90
2023-04-29T12:12:44.225Z,99.90
2023-04-29T12:15:11.813Z,99.90
2023-04-29T12:17:39.565Z,99.90
2023-04-29T12:20:11.094Z,99.90
2023-04-29T12:22:38.174Z,99.90
2023-04-29T12:25:05.800Z,99.90
2023-04-29T12:27:34.562Z,99.90
2023-04-29T12:30:01.605Z,99.90
2023-04-29T12:32:33.663Z,99.90
2023-04-29T12:35:01.132Z,99.90
2023-04-29T12:37:30.958Z,99.90
2023-04-29T12:39:57.992Z,99.90
2023-04-29T12:42:31.890Z,99.90
2023-04-29T12:44:59.025Z,99.90
2023-04-29T12:47:33.890Z,99.90
2023-04-29T12:50:01.348Z,99.90
2023-04-29T12:52:28.350Z,99.90
2023-04-29T12:54:57.413Z,99.90
2023-04-29T12:57:26.492Z,99.90
2023-04-29T12:59:53.625Z,99.90
2023-04-29T13:02:20.689Z,99.90
2023-04-29T13:04:47.910Z,99.90
2023-04-29T13:07:15.030Z,99.90
2023-04-29T13:09:42.424Z,99.90
2023-04-29T13:12:09.705Z,99.90
2023-04-29T13:14:37.132Z,99.90
2023-04-29T13:17:04.688Z,99.90
2023-04-29T13:19:48.087Z,99.90
2023-04-29T13:22:18.341Z,99.90
2023-04-29T13:24:45.281Z,99.90
2023-04-29T13:27:12.233Z,99.90
2023-04-29T13:29:39.499Z,99.90
2023-04-29T13:32:06.643Z,99.90
2023-04-29T13:34:33.639Z,99.90
2023-04-29T13:37:00.941Z,99.90
2023-04-29T13:39:27.782Z,99.90
2023-04-29T13:41:59.018Z,99.90
2023-04-29T13:44:34.234Z,99.90
2023-04-29T13:47:06.926Z,99.90
2023-04-29T13:50:05.743Z,99.90
2023-04-29T13:55:25.210Z,99.90
2023-04-29T13:58:31.111Z,99.90
2023-04-29T14:01:01.365Z,99.90
2023-04-29T14:03:12.978Z,99.90
2023-04-29T14:05:40.261Z,99.90
2023-04-29T14:08:07.366Z,99.90
2023-04-29T14:10:34.982Z,99.90
2023-04-29T14:13:03.243Z,99.90
2023-04-29T14:15:30.919Z,99.90
2023-04-29T14:17:57.884Z,99.90
2023-04-29T14:20:24.800Z,99.90
2023-04-29T14:22:51.678Z,99.90
2023-04-29T14:25:19.002Z,99.90
2023-04-29T14:27:46.342Z,99.90
2023-04-29T14:30:13.714Z,99.90
2023-04-29T14:32:40.702Z,99.90
2023-04-29T14:35:08.770Z,99.90
2023-04-29T14:37:35.923Z,99.90
2023-04-29T14:40:03.962Z,99.90
2023-04-29T14:42:32.414Z,99.90
2023-04-29T14:44:59.800Z,99.70
2023-04-29T14:47:27.159Z,99.40
2023-04-29T14:49:54.452Z,99.80
2023-04-29T14:52:21.899Z,98.80
2023-04-29T14:54:48.782Z,97.10
2023-04-29T14:57:15.739Z,97.00
2023-04-29T14:59:42.706Z,95.90
2023-04-29T15:02:09.616Z,95.00
2023-04-29T15:04:38.129Z,93.00
2023-04-29T15:07:06.028Z,93.50
2023-04-29T15:09:34.001Z,94.50
2023-04-29T15:12:00.862Z,93.80
2023-04-29T15:14:28.110Z,94.60
2023-04-29T15:16:55.352Z,96.00
2023-04-29T15:19:25.113Z,97.30
2023-04-29T15:21:52.533Z,98.00
2023-04-29T15:24:19.844Z,98.90
2023-04-29T15:26:47.206Z,98.50
2023-04-29T15:29:14.198Z,98.70
2023-04-29T15:31:41.235Z,99.10
2023-04-29T15:34:08.549Z,98.80
2023-04-29T15:36:35.509Z,98.60
2023-04-29T15:39:02.724Z,97.50
2023-04-29T15:41:29.840Z,97.20
2023-04-29T15:43:57.712Z,97.40
2023-04-29T15:46:24.635Z,97.30
2023-04-29T15:48:51.917Z,97.50
2023-04-29T15:51:18.921Z,97.90
2023-04-29T15:53:45.900Z,98.30
2023-04-29T15:56:13.365Z,98.60
2023-04-29T15:58:40.524Z,98.70
2023-04-29T16:01:07.853Z,98.50
2023-04-29T16:03:35.236Z,97.30
2023-04-29T16:06:02.206Z,96.90
2023-04-29T16:08:29.564Z,95.10
2023-04-29T16:10:56.546Z,94.20
2023-04-29T16:13:23.493Z,93.60
2023-04-29T16:15:50.530Z,92.70
2023-04-29T16:18:17.997Z,92.30
2023-04-29T16:20:45.568Z,92.20
2023-04-29T16:23:12.512Z,92.80
2023-04-29T16:25:41.914Z,92.70
2023-04-29T16:28:08.768Z,92.40
2023-04-29T16:30:36.267Z,92.60
2023-04-29T16:33:03.280Z,92.70
2023-04-29T16:35:31.075Z,92.30
2023-04-29T16:37:58.230Z,92.40
2023-04-29T16:40:25.238Z,93.30
2023-04-29T16:42:53.505Z,93.40
2023-04-29T16:45:23.624Z,94.20
2023-04-29T16:47:50.853Z,94.30
2023-04-29T16:50:18.092Z,94.30
2023-04-29T16:52:45.139Z,94.70
2023-04-29T16:55:12.943Z,95.50
2023-04-29T16:57:39.857Z,95.30
2023-04-29T17:00:11.198Z,96.90
2023-04-29T17:02:40.445Z,96.40
2023-04-29T17:05:09.312Z,97.20
2023-04-29T17:07:36.368Z,97.70
2023-04-29T17:10:04.035Z,98.70
2023-04-29T17:12:30.944Z,99.50
2023-04-29T17:14:57.886Z,99.30
2023-04-29T17:17:24.874Z,99.70
2023-04-29T17:19:52.141Z,99.90
2023-04-29T17:22:19.943Z,99.90
2023-04-29T17:24:47.031Z,99.90
2023-04-29T17:27:14.102Z,99.90
2023-04-29T17:29:41.382Z,99.90
2023-04-29T17:32:13.475Z,99.90
2023-04-29T17:34:40.958Z,99.90
2023-04-29T17:37:08.266Z,99.90
2023-04-29T17:39:35.806Z,99.90
2023-04-29T17:42:02.674Z,99.90
2023-04-29T17:44:29.601Z,99.90
2023-04-29T17:46:56.520Z,99.90
2023-04-29T17:49:23.450Z,99.90
2023-04-29T17:51:50.389Z,99.90
2023-04-29T17:54:17.340Z,99.90
2023-04-29T17:56:44.279Z,99.90
2023-04-29T17:59:11.876Z,99.90
2023-04-29T18:01:39.053Z,99.90
2023-04-29T18:04:06.308Z,99.90
2023-04-29T18:06:33.410Z,99.90
2023-04-29T18:09:00.413Z,99.90
2023-04-29T18:11:27.426Z,99.90
2023-04-29T18:13:54.728Z,99.90
2023-04-29T18:16:21.836Z,99.90
2023-04-29T18:18:53.426Z,99.90
2023-04-29T18:21:27.322Z,99.90
2023-04-29T18:23:55.017Z,99.90
2023-04-29T18:26:22.074Z,99.90
2023-04-29T18:28:49.564Z,99.90
2023-04-29T18:31:17.988Z,99.90
2023-04-29T18:33:45.526Z,99.90
2023-04-29T18:36:14.187Z,99.90
2023-04-29T18:38:41.380Z,99.90
2023-04-29T18:41:08.717Z,99.90
2023-04-29T18:43:36.645Z,99.90
2023-04-29T18:46:04.060Z,99.90
2023-04-29T18:48:31.316Z,99.90
2023-04-29T18:51:00.294Z,99.90
2023-04-29T18:53:27.687Z,99.90
2023-04-29T18:55:54.649Z,99.90
2023-04-29T18:58:22.194Z,99.90
2023-04-29T19:00:49.216Z,99.90
2023-04-29T19:03:16.505Z,99.90
2023-04-29T19:05:43.589Z,99.90
2023-04-29T19:08:10.638Z,99.90
2023-04-29T19:10:37.529Z,99.90
2023-04-29T19:13:04.640Z,99.90
2023-04-29T19:15:32.133Z,99.90
2023-04-29T19:17:59.141Z,99.90
2023-04-29T19:20:26.797Z,99.90
2023-04-29T19:22:53.705Z,99.90
2023-04-29T19:25:21.263Z,99.90
2023-04-29T19:27:49.170Z,99.90
2023-04-29T19:30:16.777Z,99.90
2023-04-29T19:32:45.639Z,99.90
2023-04-29T19:35:13.117Z,99.90
2023-04-29T19:37:40.648Z,99.90
2023-04-29T19:40:10.686Z,99.90
2023-04-29T19:42:39.495Z,99.90
2023-04-29T19:45:07.979Z,99.90
2023-04-29T19:47:37.822Z,99.90
2023-04-29T19:50:15.135Z,99.90
2023-04-29T19:52:42.608Z,99.90
2023-04-29T19:55:10.098Z,99.90
2023-04-29T19:57:38.720Z,99.90
2023-04-29T20:00:07.863Z,99.90
2023-04-29T20:02:35.322Z,99.90
2023-04-29T20:11:02.579Z,99.90
2023-04-29T20:19:56.728Z,99.90
2023-04-29T20:31:11.159Z,99.90
2023-04-29T20:33:38.686Z,99.90
2023-04-29T20:36:06.870Z,99.90
2023-04-29T20:38:35.525Z,99.90
2023-04-29T20:41:03.499Z,99.90
2023-04-29T20:43:31.045Z,99.90
2023-04-29T20:45:58.993Z,99.90
2023-04-29T20:51:01.800Z,99.90
2023-04-29T20:53:28.955Z,99.90
2023-04-29T20:55:55.845Z,99.90
2023-04-29T20:58:22.960Z,99.90
2023-04-29T21:00:49.923Z,99.90
2023-04-29T21:06:02.555Z,99.90
2023-04-29T21:08:29.510Z,99.90
2023-04-29T21:10:56.887Z,99.90
2023-04-29T21:13:23.938Z,99.90
2023-04-29T21:15:51.016Z,99.90
2023-04-29T21:18:18.120Z,99.90
2023-04-29T21:20:45.758Z,99.90
2023-04-29T21:23:13.119Z,99.90
2023-04-29T21:25:40.564Z,99.90
2023-04-29T21:28:07.447Z,99.90
2023-04-29T21:30:34.515Z,99.90
2023-04-29T21:33:02.104Z,99.90
2023-04-29T21:35:29.482Z,99.90
2023-04-29T21:37:56.692Z,99.90
2023-04-29T21:40:26.464Z,99.90
2023-04-29T21:42:55.384Z,99.90
2023-04-29T21:45:22.883Z,99.90
2023-04-29T21:47:53.116Z,99.90
2023-04-29T21:50:25.377Z,99.90
2023-04-29T21:52:53.935Z,99.90
2023-04-29T21:55:21.308Z,99.90
2023-04-29T21:57:48.512Z,99.90
2023-04-29T22:00:33.231Z,99.90
2023-04-29T22:03:01.716Z,99.90
2023-04-29T22:05:29.667Z,99.90
2023-04-29T22:07:59.169Z,99.90
2023-04-29T22:10:26.290Z,99.90
2023-04-29T22:12:54.147Z,99.90
2023-04-29T22:15:29.091Z,99.90
2023-04-29T22:17:59.416Z,99.90
2023-04-29T22:20:37.702Z,99.90
2023-04-29T22:23:05.359Z,99.90
2023-04-29T22:25:32.428Z,99.90
2023-04-29T22:27:59.408Z,99.90
2023-04-29T22:30:26.318Z,99.90
2023-04-29T22:32:53.247Z,99.90
2023-04-29T22:35:20.368Z,99.90
2023-04-29T22:37:50.658Z,99.90
2023-04-29T22:40:17.861Z,99.90
2023-04-29T22:42:52.249Z,99.90
2023-04-29T22:45:19.551Z,99.90
2023-04-29T22:47:46.608Z,99.90
2023-04-29T22:50:14.555Z,99.90
2023-04-29T22:52:41.981Z,99.90
2023-04-29T22:55:09.754Z,99.90
2023-04-29T22:57:37.077Z,99.90
2023-04-29T23:00:04.270Z,99.90
2023-04-29T23:02:31.292Z,99.90
2023-04-29T23:05:04.376Z,99.90
2023-04-29T23:07:31.938Z,99.90
2023-04-29T23:09:58.893Z,99.90
2023-04-29T23:12:25.855Z,99.90
2023-04-29T23:14:53.757Z,99.90
2023-04-29T23:17:21.037Z,99.90
2023-04-29T23:19:47.884Z,99.90
2023-04-29T23:22:17.089Z,99.90
2023-04-29T23:24:44.288Z,99.90
2023-04-29T23:27:11.671Z,99.90
2023-04-29T23:29:41.879Z,99.90
2023-04-29T23:32:09.942Z,99.90
2023-04-29T23:34:40.035Z,99.90
2023-04-29T23:37:06.869Z,99.90
2023-04-29T23:39:33.890Z,99.90
2023-04-29T23:42:01.366Z,99.90
2023-04-29T23:44:28.862Z,99.90
2023-04-29T23:46:57.098Z,99.90
2023-04-29T23:49:24.272Z,99.90
2023-04-29T23:51:56.842Z,99.90
2023-04-29T23:54:24.104Z,99.90
2023-04-29T23:56:51.438Z,99.90
2023-04-29T23:59:18.742Z,99.90
